createdAt,value
2023-03-01T00:02:08.729Z,1.80
2023-03-01T00:04:36.716Z,1.80
2023-03-01T00:07:03.293Z,1.70
2023-03-01T00:09:29.926Z,1.70
2023-03-01T00:11:56.537Z,1.70
2023-03-01T00:14:23.183Z,1.70
2023-03-01T00:16:49.820Z,1.70
2023-03-01T00:19:22.985Z,1.70
2023-03-01T00:21:49.696Z,1.70
2023-03-01T00:24:16.698Z,1.70
2023-03-01T00:26:43.325Z,1.70
2023-03-01T00:29:09.983Z,1.70
2023-03-01T00:31:36.604Z,1.70
2023-03-01T00:34:04.441Z,1.70
2023-03-01T00:36:35.906Z,1.70
2023-03-01T00:39:04.020Z,1.70
2023-03-01T00:41:31.062Z,1.70
2023-03-01T00:43:58.013Z,1.70
2023-03-01T00:46:26.253Z,1.70
2023-03-01T00:48:52.948Z,1.70
2023-03-01T00:51:21.053Z,1.70
2023-03-01T00:53:48.113Z,1.60
2023-03-01T00:56:15.658Z,1.70
2023-03-01T00:58:42.759Z,1.70
2023-03-01T01:01:18.497Z,1.70
2023-03-01T01:03:52.533Z,1.70
2023-03-01T01:06:21.903Z,1.70
2023-03-01T01:08:48.941Z,1.70
2023-03-01T01:11:16.067Z,1.60
2023-03-01T01:13:44.382Z,1.60
2023-03-01T01:16:11.024Z,1.60
2023-03-01T01:18:37.710Z,1.60
2023-03-01T01:21:08.912Z,1.60
2023-03-01T01:23:35.562Z,1.60
2023-03-01T01:26:09.375Z,1.60
2023-03-01T01:28:36.552Z,1.60
2023-03-01T01:31:03.325Z,1.60
2023-03-01T01:33:29.966Z,1.60
2023-03-01T01:35:56.654Z,1.50
2023-03-01T01:38:23.474Z,1.60
2023-03-01T01:40:51.297Z,1.60
2023-03-01T01:43:20.322Z,1.60
2023-03-01T01:45:46.953Z,1.60
2023-03-01T01:48:15.801Z,1.60
2023-03-01T01:50:42.577Z,1.60
2023-03-01T01:53:14.964Z,1.60
2023-03-01T01:55:48.331Z,1.60
2023-03-01T01:58:16.970Z,1.50
2023-03-01T02:00:43.597Z,1.60
2023-03-01T02:03:19.907Z,1.50
2023-03-01T02:05:55.958Z,1.50
2023-03-01T02:08:23.890Z,1.50
2023-03-01T02:10:51.345Z,1.50
2023-03-01T02:13:17.980Z,1.40
2023-03-01T02:15:45.155Z,1.40
2023-03-01T02:18:14.413Z,1.40
2023-03-01T02:20:47.105Z,1.40
2023-03-01T02:23:13.789Z,1.40
2023-03-01T02:25:47.560Z,1.40
2023-03-01T02:28:17.265Z,1.40
2023-03-01T02:31:04.328Z,1.40
2023-03-01T02:33:37.059Z,1.40
2023-03-01T02:36:14.164Z,1.30
2023-03-01T02:38:41.634Z,1.30
2023-03-01T02:41:08.853Z,1.30
2023-03-01T02:43:35.853Z,1.40
2023-03-01T02:46:07.415Z,1.40
2023-03-01T02:48:41.158Z,1.30
2023-03-01T02:51:13.964Z,1.30
2023-03-01T02:53:46.502Z,1.40
2023-03-01T02:56:14.234Z,1.40
2023-03-01T02:58:46.119Z,1.30
2023-03-01T03:01:14.890Z,1.30
2023-03-01T03:03:41.684Z,1.40
2023-03-01T03:06:08.318Z,1.30
2023-03-01T03:08:34.975Z,1.30
2023-03-01T03:11:01.597Z,1.30
2023-03-01T03:13:29.466Z,1.30
2023-03-01T03:15:56.960Z,1.30
2023-03-01T03:18:26.829Z,1.20
2023-03-01T03:20:54.153Z,1.20
2023-03-01T03:23:21.852Z,1.20
2023-03-01T03:25:49.519Z,1.20
2023-03-01T03:28:16.862Z,1.20
2023-03-01T03:30:43.877Z,1.20
2023-03-01T03:33:13.473Z,1.20
2023-03-01T03:35:48.324Z,1.20
2023-03-01T03:38:18.794Z,1.20
2023-03-01T03:40:49.653Z,1.30
2023-03-01T03:43:20.754Z,1.30
2023-03-01T03:45:48.125Z,1.20
2023-03-01T03:48:15.172Z,1.20
2023-03-01T03:50:42.160Z,1.20
2023-03-01T03:53:12.693Z,1.20
2023-03-01T03:55:40.145Z,1.20
2023-03-01T03:58:08.654Z,1.20
2023-03-01T04:00:36.387Z,1.20
2023-03-01T04:03:03.579Z,1.10
2023-03-01T04:05:30.291Z,1.10
2023-03-01T04:08:03.445Z,1.10
2023-03-01T04:10:31.025Z,1.00
2023-03-01T04:12:57.987Z,1.00
2023-03-01T04:15:25.466Z,1.00
2023-03-01T04:17:53.761Z,1.00
2023-03-01T04:20:27.559Z,0.90
2023-03-01T04:23:11.295Z,0.90
2023-03-01T04:25:38.766Z,0.90
2023-03-01T04:28:05.380Z,0.90
2023-03-01T04:30:36.651Z,0.90
2023-03-01T04:33:07.504Z,0.90
2023-03-01T04:35:35.620Z,0.90
2023-03-01T04:38:02.477Z,0.90
2023-03-01T04:40:29.135Z,0.80
2023-03-01T04:42:55.845Z,0.80
2023-03-01T04:45:22.769Z,0.80
2023-03-01T04:47:49.436Z,0.80
2023-03-01T04:50:21.158Z,0.80
2023-03-01T04:52:48.326Z,0.80
2023-03-01T04:55:14.993Z,0.80
2023-03-01T04:57:42.051Z,0.80
2023-03-01T05:00:20.936Z,0.80
2023-03-01T05:02:55.277Z,0.70
2023-03-01T05:05:27.059Z,0.70
2023-03-01T05:07:54.712Z,0.70
2023-03-01T05:10:21.804Z,0.60
2023-03-01T05:12:48.467Z,0.60
2023-03-01T05:15:15.277Z,0.70
2023-03-01T05:17:42.163Z,0.60
2023-03-01T05:20:09.844Z,0.60
2023-03-01T05:22:36.621Z,0.60
2023-03-01T05:25:04.125Z,0.60
2023-03-01T05:27:30.730Z,0.50
2023-03-01T05:29:57.419Z,0.50
2023-03-01T05:32:24.127Z,0.50
2023-03-01T05:34:53.112Z,0.40
2023-03-01T05:37:20.836Z,0.40
2023-03-01T05:39:49.410Z,0.40
2023-03-01T05:42:17.851Z,0.40
2023-03-01T05:44:44.479Z,0.40
2023-03-01T05:47:11.129Z,0.30
2023-03-01T05:49:39.755Z,0.30
2023-03-01T05:52:06.584Z,0.30
2023-03-01T05:54:34.168Z,0.30
2023-03-01T05:57:00.808Z,0.30
2023-03-01T05:59:27.459Z,0.30
2023-03-01T06:01:54.554Z,0.30
2023-03-01T06:04:22.084Z,0.30
2023-03-01T06:06:48.836Z,0.30
2023-03-01T06:09:15.497Z,0.30
2023-03-01T06:11:42.112Z,0.30
2023-03-01T06:14:08.856Z,0.30
2023-03-01T06:16:35.505Z,0.20
2023-03-01T06:19:02.129Z,0.20
2023-03-01T06:21:28.767Z,0.20
2023-03-01T06:23:55.474Z,0.20
2023-03-01T06:26:22.136Z,0.20
2023-03-01T06:28:48.765Z,0.20
2023-03-01T06:31:15.443Z,0.20
2023-03-01T06:33:42.155Z,0.20
2023-03-01T06:36:09.089Z,0.10
2023-03-01T06:38:35.740Z,0.10
2023-03-01T06:41:02.913Z,0.10
2023-03-01T06:43:29.533Z,0.10
2023-03-01T06:45:56.306Z,0.10
2023-03-01T06:48:22.969Z,0.10
2023-03-01T06:50:49.658Z,0.10
2023-03-01T06:53:16.305Z,0.10
2023-03-01T06:55:42.931Z,0.10
2023-03-01T06:58:09.878Z,0.10
2023-03-01T07:00:36.532Z,0.20
2023-03-01T07:03:03.779Z,0.20
2023-03-01T07:05:31.131Z,0.20
2023-03-01T07:07:57.960Z,0.20
2023-03-01T07:10:24.917Z,0.20
2023-03-01T07:12:51.566Z,0.20
2023-03-01T07:15:18.242Z,0.20
2023-03-01T07:17:45.599Z,0.20
2023-03-01T07:20:12.677Z,0.20
2023-03-01T07:22:40.598Z,0.20
2023-03-01T07:25:07.384Z,0.20
2023-03-01T07:27:33.965Z,0.30
2023-03-01T07:30:00.574Z,0.30
2023-03-01T07:32:27.302Z,0.40
2023-03-01T07:34:53.925Z,0.40
2023-03-01T07:37:20.649Z,0.50
2023-03-01T07:39:47.280Z,0.50
2023-03-01T07:42:13.877Z,0.50
2023-03-01T07:44:40.554Z,0.60
2023-03-01T07:47:07.218Z,0.60
2023-03-01T07:49:33.835Z,0.60
2023-03-01T07:52:00.559Z,0.60
2023-03-01T07:54:27.279Z,0.60
2023-03-01T07:56:55.683Z,0.70
2023-03-01T07:59:22.378Z,0.70
2023-03-01T08:01:49.019Z,0.80
2023-03-01T08:04:15.658Z,0.80
2023-03-01T08:06:42.270Z,0.90
2023-03-01T08:09:09.540Z,1.00
2023-03-01T08:11:36.226Z,1.00
2023-03-01T08:14:02.956Z,1.10
2023-03-01T08:16:30.191Z,1.10
2023-03-01T08:19:00.394Z,1.10
2023-03-01T08:21:27.068Z,1.10
2023-03-01T08:23:53.720Z,1.20
2023-03-01T08:26:21.672Z,1.30
2023-03-01T08:28:48.873Z,1.40
2023-03-01T08:31:21.179Z,1.40
2023-03-01T08:33:51.671Z,1.60
2023-03-01T08:36:18.733Z,1.60
2023-03-01T08:38:45.397Z,1.70
2023-03-01T08:41:12.104Z,1.70
2023-03-01T08:43:38.769Z,1.70
2023-03-01T08:46:05.420Z,1.80
2023-03-01T08:48:32.138Z,1.80
2023-03-01T08:51:07.503Z,1.90
2023-03-01T08:53:34.133Z,2.00
2023-03-01T08:56:01.302Z,2.10
2023-03-01T08:58:27.910Z,2.10
2023-03-01T09:00:54.513Z,2.00
2023-03-01T09:03:21.087Z,2.00
2023-03-01T09:05:47.694Z,2.10
2023-03-01T09:08:14.441Z,2.10
2023-03-01T09:10:41.145Z,2.10
2023-03-01T09:13:07.756Z,2.20
2023-03-01T09:15:34.490Z,2.30
2023-03-01T09:18:01.233Z,2.40
2023-03-01T09:20:27.809Z,2.50
2023-03-01T09:22:54.435Z,2.60
2023-03-01T09:25:21.018Z,2.70
2023-03-01T09:27:47.628Z,3.00
2023-03-01T09:30:14.474Z,3.10
2023-03-01T09:32:43.634Z,3.30
2023-03-01T09:35:10.285Z,3.30
2023-03-01T09:37:38.492Z,3.20
2023-03-01T09:40:06.323Z,3.20
2023-03-01T09:42:36.972Z,3.10
2023-03-01T09:45:12.348Z,3.00
2023-03-01T09:47:38.962Z,3.00
2023-03-01T09:50:05.552Z,3.00
2023-03-01T09:52:39.844Z,3.10
2023-03-01T09:55:17.066Z,3.20
2023-03-01T09:57:46.692Z,3.20
2023-03-01T10:00:22.819Z,3.20
2023-03-01T10:02:57.262Z,3.20
2023-03-01T10:05:32.291Z,3.20
2023-03-01T10:08:17.820Z,3.20
2023-03-01T10:10:45.603Z,3.20
2023-03-01T10:13:15.253Z,3.30
2023-03-01T10:15:46.416Z,3.40
2023-03-01T10:18:21.360Z,3.40
2023-03-01T10:20:52.885Z,3.40
2023-03-01T10:23:19.580Z,3.40
2023-03-01T10:25:49.265Z,3.40
2023-03-01T10:28:26.021Z,3.50
2023-03-01T10:30:53.092Z,3.60
2023-03-01T10:33:19.827Z,3.60
2023-03-01T10:35:46.586Z,3.80
2023-03-01T10:38:16.879Z,3.90
2023-03-01T10:41:08.496Z,4.10
2023-03-01T10:43:52.545Z,3.90
2023-03-01T10:46:27.450Z,4.00
2023-03-01T10:49:12.521Z,4.20
2023-03-01T10:51:40.698Z,4.40
2023-03-01T10:54:16.046Z,4.60
2023-03-01T10:56:50.796Z,4.80
2023-03-01T10:59:37.278Z,4.90
2023-03-01T11:02:24.400Z,5.10
2023-03-01T11:04:57.856Z,5.40
2023-03-01T11:07:24.668Z,5.60
2023-03-01T11:09:51.302Z,5.80
2023-03-01T11:12:18.087Z,5.90
2023-03-01T11:14:48.750Z,5.90
2023-03-01T11:17:15.330Z,6.00
2023-03-01T11:19:46.851Z,5.90
2023-03-01T11:22:21.159Z,6.00
2023-03-01T11:24:54.776Z,6.00
2023-03-01T11:27:33.156Z,6.10
2023-03-01T11:30:04.571Z,6.30
2023-03-01T11:32:39.998Z,6.50
2023-03-01T11:35:15.661Z,6.70
2023-03-01T11:37:51.982Z,6.60
2023-03-01T11:40:25.398Z,6.60
2023-03-01T11:42:55.188Z,6.70
2023-03-01T11:45:24.037Z,6.90
2023-03-01T11:47:57.832Z,6.90
2023-03-01T11:50:33.879Z,6.80
2023-03-01T11:53:14.686Z,6.70
2023-03-01T11:56:00.205Z,6.60
2023-03-01T11:58:36.050Z,6.50
2023-03-01T12:01:21.406Z,6.40
2023-03-01T12:04:00.325Z,6.40
2023-03-01T12:06:27.459Z,6.30
2023-03-01T12:09:10.464Z,6.10
2023-03-01T12:11:53.592Z,6.10
2023-03-01T12:14:23.249Z,6.10
2023-03-01T12:17:03.427Z,6.10
2023-03-01T12:19:49.050Z,6.20
2023-03-01T12:22:21.664Z,6.40
2023-03-01T12:25:20.904Z,6.30
2023-03-01T12:28:05.802Z,6.20
2023-03-01T12:30:44.689Z,6.10
2023-03-01T12:33:17.361Z,6.00
2023-03-01T12:35:53.120Z,6.00
2023-03-01T12:38:35.727Z,5.90
2023-03-01T12:41:15.108Z,5.90
2023-03-01T12:43:50.947Z,5.70
2023-03-01T12:46:17.637Z,5.50
2023-03-01T12:49:07.368Z,5.50
2023-03-01T12:51:35.743Z,5.60
2023-03-01T12:54:21.953Z,5.60
2023-03-01T12:56:53.419Z,5.60
2023-03-01T12:59:23.356Z,5.50
2023-03-01T13:01:53.329Z,5.40
2023-03-01T13:04:38.951Z,5.40
2023-03-01T13:07:25.751Z,5.40
2023-03-01T13:09:55.077Z,5.40
2023-03-01T13:12:40.550Z,5.40
2023-03-01T13:15:25.500Z,5.50
2023-03-01T13:17:57.063Z,5.50
2023-03-01T13:20:30.519Z,5.50
2023-03-01T13:23:25.663Z,5.60
2023-03-01T13:26:01.513Z,5.60
2023-03-01T13:28:37.490Z,5.60
2023-03-01T13:31:05.043Z,5.70
2023-03-01T13:33:31.623Z,5.70
2023-03-01T13:35:59.425Z,5.60
2023-03-01T13:38:42.030Z,5.60
2023-03-01T13:41:09.161Z,5.70
2023-03-01T13:43:36.813Z,5.70
2023-03-01T13:46:09.530Z,5.70
2023-03-01T13:48:36.148Z,5.60
2023-03-01T13:51:04.204Z,5.70
2023-03-01T13:53:32.418Z,5.70
2023-03-01T13:56:04.022Z,5.70
2023-03-01T13:58:32.089Z,5.80
2023-03-01T14:01:00.343Z,5.80
2023-03-01T14:03:27.435Z,5.70
2023-03-01T14:06:14.063Z,5.70
2023-03-01T14:08:42.573Z,5.70
2023-03-01T14:11:15.315Z,5.80
2023-03-01T14:14:00.743Z,5.80
2023-03-01T14:16:27.320Z,5.80
2023-03-01T14:19:15.973Z,5.90
2023-03-01T14:21:44.636Z,5.80
2023-03-01T14:24:23.668Z,5.70
2023-03-01T14:26:50.919Z,5.70
2023-03-01T14:29:43.954Z,5.60
2023-03-01T14:32:10.735Z,5.60
2023-03-01T14:34:43.349Z,5.60
2023-03-01T14:37:19.082Z,5.60
2023-03-01T14:39:45.731Z,5.60
2023-03-01T14:42:15.632Z,5.60
2023-03-01T14:44:44.189Z,5.70
2023-03-01T14:47:13.443Z,5.60
2023-03-01T14:49:40.225Z,5.60
2023-03-01T14:52:21.497Z,5.70
2023-03-01T14:54:52.679Z,5.70
2023-03-01T14:57:23.580Z,5.70
2023-03-01T14:59:51.799Z,5.70
2023-03-01T15:02:20.548Z,5.70
2023-03-01T15:04:48.148Z,5.80
2023-03-01T15:07:15.187Z,5.80
2023-03-01T15:09:42.450Z,5.80
2023-03-01T15:12:27.801Z,5.90
2023-03-01T15:15:03.245Z,5.80
2023-03-01T15:17:37.653Z,5.90
2023-03-01T15:20:06.762Z,5.90
2023-03-01T15:22:33.577Z,5.90
2023-03-01T15:25:00.388Z,5.90
2023-03-01T15:27:28.278Z,5.90
2023-03-01T15:30:03.066Z,5.90
2023-03-01T15:32:34.649Z,5.90
2023-03-01T15:35:02.702Z,5.90
2023-03-01T15:37:48.456Z,5.90
2023-03-01T15:40:33.364Z,5.90
2023-03-01T15:43:00.511Z,5.90
2023-03-01T15:45:28.878Z,5.90
2023-03-01T15:47:58.841Z,5.90
2023-03-01T15:50:28.537Z,5.90
2023-03-01T15:52:55.823Z,5.90
2023-03-01T15:55:30.662Z,5.90
2023-03-01T15:58:06.896Z,5.90
2023-03-01T16:00:33.807Z,5.90
2023-03-01T16:03:00.626Z,5.90
2023-03-01T16:05:31.679Z,5.80
2023-03-01T16:07:58.476Z,5.80
2023-03-01T16:10:25.487Z,5.80
2023-03-01T16:12:53.434Z,5.70
2023-03-01T16:15:20.193Z,5.70
2023-03-01T16:17:46.926Z,5.70
2023-03-01T16:20:27.207Z,5.70
2023-03-01T16:22:55.122Z,5.60
2023-03-01T16:25:22.203Z,5.60
2023-03-01T16:27:50.122Z,5.50
2023-03-01T16:30:18.149Z,5.50
2023-03-01T16:32:45.754Z,5.50
2023-03-01T16:35:13.761Z,5.40
2023-03-01T16:37:40.629Z,5.40
2023-03-01T16:40:12.549Z,5.40
2023-03-01T16:42:40.630Z,5.30
2023-03-01T16:45:18.425Z,5.30
2023-03-01T16:47:49.943Z,5.20
2023-03-01T16:50:16.590Z,5.20
2023-03-01T16:52:43.229Z,5.10
2023-03-01T16:55:10.708Z,5.10
2023-03-01T16:57:38.154Z,5.10
2023-03-01T17:00:08.324Z,5.00
2023-03-01T17:02:35.889Z,5.00
2023-03-01T17:05:03.590Z,4.90
2023-03-01T17:07:34.194Z,4.80
2023-03-01T17:10:01.338Z,4.70
2023-03-01T17:12:28.803Z,4.50
2023-03-01T17:14:55.637Z,4.40
2023-03-01T17:17:22.542Z,4.30
2023-03-01T17:19:49.162Z,4.20
2023-03-01T17:22:16.186Z,4.10
2023-03-01T17:24:43.421Z,4.00
2023-03-01T17:27:11.836Z,3.90
2023-03-01T17:29:38.953Z,3.80
2023-03-01T17:32:06.066Z,3.70
2023-03-01T17:34:33.362Z,3.60
2023-03-01T17:37:00.013Z,3.50
2023-03-01T17:39:32.259Z,3.40
2023-03-01T17:41:59.252Z,3.30
2023-03-01T17:44:26.033Z,3.30
2023-03-01T17:46:52.718Z,3.20
2023-03-01T17:49:19.497Z,3.10
2023-03-01T17:51:46.138Z,3.00
2023-03-01T17:54:12.796Z,3.00
2023-03-01T17:56:41.270Z,2.90
2023-03-01T17:59:08.062Z,2.80
2023-03-01T18:01:36.189Z,2.80
2023-03-01T18:04:02.870Z,2.70
2023-03-01T18:06:30.213Z,2.70
2023-03-01T18:08:57.185Z,2.60
2023-03-01T18:11:24.984Z,2.50
2023-03-01T18:13:53.251Z,2.40
2023-03-01T18:16:20.676Z,2.30
2023-03-01T18:18:47.830Z,2.30
2023-03-01T18:21:14.847Z,2.20
2023-03-01T18:23:41.937Z,2.20
2023-03-01T18:26:09.955Z,2.10
2023-03-01T18:28:37.339Z,2.00
2023-03-01T18:31:05.640Z,2.00
2023-03-01T18:33:32.386Z,1.90
2023-03-01T18:35:59.126Z,1.90
2023-03-01T18:38:25.973Z,1.80
2023-03-01T18:40:53.116Z,1.70
2023-03-01T18:43:19.893Z,1.60
2023-03-01T18:45:46.546Z,1.60
2023-03-01T18:48:14.292Z,1.50
2023-03-01T18:50:41.560Z,1.50
2023-03-01T18:53:08.406Z,1.40
2023-03-01T18:55:39.099Z,1.40
2023-03-01T18:58:06.060Z,1.30
2023-03-01T19:00:33.317Z,1.20
2023-03-01T19:03:01.236Z,1.10
2023-03-01T19:05:28.454Z,1.10
2023-03-01T19:07:55.180Z,1.10
2023-03-01T19:10:21.864Z,1.00
2023-03-01T19:12:48.530Z,1.00
2023-03-01T19:15:16.305Z,1.00
2023-03-01T19:17:43.408Z,0.90
2023-03-01T19:20:10.589Z,0.80
2023-03-01T19:22:37.243Z,0.80
2023-03-01T19:25:03.991Z,0.70
2023-03-01T19:27:30.631Z,0.70
2023-03-01T19:29:57.260Z,0.70
2023-03-01T19:32:23.959Z,0.60
2023-03-01T19:34:50.644Z,0.60
2023-03-01T19:37:17.292Z,0.50
2023-03-01T19:39:44.039Z,0.50
2023-03-01T19:42:11.080Z,0.50
2023-03-01T19:44:38.675Z,0.50
2023-03-01T19:47:05.382Z,0.50
2023-03-01T19:49:32.811Z,0.50
2023-03-01T19:51:59.482Z,0.40
2023-03-01T19:54:26.156Z,0.40
2023-03-01T19:56:52.832Z,0.40
2023-03-01T19:59:24.123Z,0.40
2023-03-01T20:01:51.535Z,0.40
2023-03-01T20:04:18.202Z,0.40
2023-03-01T20:06:48.610Z,0.40
2023-03-01T20:09:21.925Z,0.30
2023-03-01T20:11:49.220Z,0.30
2023-03-01T20:14:15.833Z,0.30
2023-03-01T20:16:42.478Z,0.30
2023-03-01T20:19:09.190Z,0.20
2023-03-01T20:21:35.981Z,0.20
2023-03-01T20:24:02.614Z,0.20
2023-03-01T20:26:29.630Z,0.20
2023-03-01T20:28:57.078Z,0.20
2023-03-01T20:31:29.933Z,0.20
2023-03-01T20:33:57.387Z,0.10
2023-03-01T20:36:24.191Z,0.10
2023-03-01T20:38:52.359Z,0.10
2023-03-01T20:41:19.825Z,0.10
2023-03-01T20:43:54.243Z,0.00
2023-03-01T20:46:21.521Z,0.00
2023-03-01T20:48:48.155Z,0.00
2023-03-01T20:51:15.393Z,0.00
2023-03-01T20:53:42.016Z,0.00
2023-03-01T20:56:14.992Z,0.00
2023-03-01T20:58:42.036Z,0.00
2023-03-01T21:01:09.343Z,-0.10
2023-03-01T21:03:36.163Z,-0.10
2023-03-01T21:06:04.213Z,0.00
2023-03-01T21:08:30.933Z,0.00
2023-03-01T21:10:58.065Z,0.10
2023-03-01T21:13:25.867Z,0.20
2023-03-01T21:16:07.652Z,0.20
2023-03-01T21:18:36.052Z,0.30
2023-03-01T21:21:07.313Z,0.30
2023-03-01T21:23:34.863Z,0.40
2023-03-01T21:26:01.505Z,0.50
2023-03-01T21:28:32.225Z,0.60
2023-03-01T21:31:22.557Z,0.60
2023-03-01T21:33:53.490Z,0.70
2023-03-01T21:36:20.782Z,0.70
2023-03-01T21:38:48.259Z,0.80
2023-03-01T21:41:16.784Z,0.80
2023-03-01T21:43:44.568Z,0.90
2023-03-01T21:46:13.062Z,0.90
2023-03-01T21:48:42.218Z,0.90
2023-03-01T21:51:11.166Z,1.00
2023-03-01T21:53:38.208Z,1.00
2023-03-01T21:56:05.265Z,1.10
2023-03-01T21:58:32.718Z,1.10
2023-03-01T22:01:06.686Z,1.10
2023-03-01T22:03:33.354Z,1.10
2023-03-01T22:06:01.434Z,1.10
2023-03-01T22:08:28.404Z,1.10
2023-03-01T22:10:54.998Z,1.20
2023-03-01T22:13:21.663Z,1.20
2023-03-01T22:15:48.939Z,1.10
2023-03-01T22:18:15.551Z,1.20
2023-03-01T22:20:42.216Z,1.20
2023-03-01T22:23:09.177Z,1.20
2023-03-01T22:25:40.296Z,1.20
2023-03-01T22:28:06.898Z,1.20
2023-03-01T22:30:33.619Z,1.20
2023-03-01T22:33:03.456Z,1.20
2023-03-01T22:35:30.204Z,1.20
2023-03-01T22:37:56.889Z,1.20
2023-03-01T22:40:23.498Z,1.20
2023-03-01T22:42:50.084Z,1.20
2023-03-01T22:45:16.858Z,1.20
2023-03-01T22:47:43.438Z,1.20
2023-03-01T22:50:13.091Z,1.20
2023-03-01T22:52:39.755Z,1.20
2023-03-01T22:55:06.940Z,1.20
2023-03-01T22:57:33.579Z,1.20
2023-03-01T23:00:00.187Z,1.20
2023-03-01T23:02:27.358Z,1.20
2023-03-01T23:04:54.155Z,1.20
2023-03-01T23:07:20.837Z,1.10
2023-03-01T23:09:49.356Z,1.10
2023-03-01T23:12:17.317Z,1.20
2023-03-01T23:14:43.971Z,1.10
2023-03-01T23:17:10.881Z,1.10
2023-03-01T23:19:37.632Z,1.10
2023-03-01T23:22:04.838Z,1.00
2023-03-01T23:24:32.179Z,1.00
2023-03-01T23:27:02.580Z,1.00
2023-03-01T23:29:29.811Z,1.00
2023-03-01T23:31:57.513Z,1.00
2023-03-01T23:34:25.380Z,0.90
2023-03-01T23:36:52.454Z,0.90
2023-03-01T23:39:19.317Z,0.80
2023-03-01T23:41:45.930Z,0.80
2023-03-01T23:44:14.862Z,0.80
2023-03-01T23:46:42.936Z,0.80
2023-03-01T23:49:13.506Z,0.80
2023-03-01T23:51:41.835Z,0.80
2023-03-01T23:54:09.044Z,0.80
2023-03-01T23:56:37.199Z,0.80
2023-03-01T23:59:05.396Z,0.80
